Sweeny, Texas
Current Conditions -  °F | °C
As of 3:31 PM on Wednesday 17 Dec 2014 (Local Time) from KLBX Reporting Station
Broken Clouds Broken Clouds  
Wind Chill: 66°   Ceiling: 4100
Heat Index: 66°   Visibility: 10mi
Dew Point: 59°   Wind: 16mph
Humidity: 78%   Direction: 110°ESE
Pressure: 30.08"   Gusts: NA
Location:  29.04°N, 95.7°W
Report Text: KLBX 172131Z AUTO 11014KT 10SM SCT028 BKN041 BKN085 19/15 A3008 RMK AO2 T01890150
Loading
Personal Weather Stations






























Interactive Weather Map New forecast layout! Learn more

10-Day Weather Forecast

Advertisements
Track Severe Weather on mobile